createdAt,value
2023-02-26T00:01:28.622Z,98455.47
2023-02-26T00:03:58.128Z,98448.69
2023-02-26T00:06:26.327Z,98444.41
2023-02-26T00:08:53.901Z,98431.41
2023-02-26T00:11:21.045Z,98435.00
2023-02-26T00:13:48.056Z,98446.47
2023-02-26T00:16:29.139Z,98457.25
2023-02-26T00:18:56.476Z,98454.06
2023-02-26T00:21:24.448Z,98458.47
2023-02-26T00:23:52.518Z,98465.66
2023-02-26T00:26:21.083Z,98484.28
2023-02-26T00:28:48.478Z,98488.00
2023-02-26T00:31:23.105Z,98494.06
2023-02-26T00:33:49.942Z,98505.63
2023-02-26T00:36:29.738Z,98506.88
2023-02-26T00:39:36.662Z,98510.31
2023-02-26T00:42:03.558Z,98521.09
2023-02-26T00:44:30.567Z,98523.13
2023-02-26T00:47:17.082Z,98534.03
2023-02-26T00:49:56.997Z,98541.19
2023-02-26T00:52:52.796Z,98547.25
2023-02-26T00:55:19.213Z,98549.78
2023-02-26T00:57:46.252Z,98556.63
2023-02-26T01:00:14.296Z,98581.03
2023-02-26T01:02:41.588Z,98578.00
2023-02-26T01:05:09.840Z,98573.06
2023-02-26T01:08:17.440Z,98573.88
2023-02-26T01:10:44.028Z,98562.69
2023-02-26T01:13:11.121Z,98554.00
2023-02-26T01:15:38.245Z,98540.19
2023-02-26T01:18:18.201Z,98528.88
2023-02-26T01:20:49.710Z,98525.78
2023-02-26T01:23:21.232Z,98531.19
2023-02-26T01:25:53.810Z,98527.28
2023-02-26T01:28:20.566Z,98532.97
2023-02-26T01:30:49.720Z,98538.84
2023-02-26T01:33:27.647Z,98539.25
2023-02-26T01:36:09.501Z,98538.94
2023-02-26T01:38:45.077Z,98543.22
2023-02-26T01:41:23.753Z,98537.41
2023-02-26T01:44:09.345Z,98538.81
2023-02-26T01:46:47.682Z,98538.81
2023-02-26T01:49:17.484Z,98541.56
2023-02-26T01:51:46.861Z,98544.28
2023-02-26T01:54:15.320Z,98547.06
2023-02-26T01:56:43.940Z,98555.81
2023-02-26T01:59:14.402Z,98575.34
2023-02-26T02:01:40.938Z,98597.28
2023-02-26T02:04:13.006Z,98611.97
2023-02-26T02:06:39.831Z,98637.56
2023-02-26T02:09:08.128Z,98648.53
2023-02-26T02:11:39.235Z,98662.81
2023-02-26T02:14:23.145Z,98676.41
2023-02-26T02:17:14.294Z,98673.94
2023-02-26T02:20:20.945Z,98677.84
2023-02-26T02:23:10.482Z,98672.03
2023-02-26T02:26:15.027Z,98674.06
2023-02-26T02:29:15.838Z,98688.72
2023-02-26T02:31:46.969Z,98701.56
2023-02-26T02:34:21.316Z,98708.47
2023-02-26T02:37:16.421Z,98704.06
2023-02-26T02:40:01.615Z,98713.13
2023-02-26T02:42:46.372Z,98718.59
2023-02-26T02:45:38.642Z,98715.59
2023-02-26T02:48:13.138Z,98735.34
2023-02-26T02:51:00.178Z,98734.75
2023-02-26T02:53:33.495Z,98740.81
2023-02-26T02:56:07.476Z,98737.81
2023-02-26T02:58:43.197Z,98751.50
2023-02-26T03:01:15.701Z,98750.88
2023-02-26T03:04:05.440Z,98749.22
2023-02-26T03:06:32.498Z,98763.25
2023-02-26T03:09:01.199Z,98762.66
2023-02-26T03:11:30.639Z,98759.41
2023-02-26T03:13:58.598Z,98768.44
2023-02-26T03:16:45.642Z,98771.06
2023-02-26T03:19:40.645Z,98770.25
2023-02-26T03:22:14.004Z,98763.34
2023-02-26T03:24:52.058Z,98772.13
2023-02-26T03:27:28.937Z,98771.06
2023-02-26T03:30:19.382Z,98769.88
2023-02-26T03:32:59.543Z,98768.53
2023-02-26T03:35:35.536Z,98768.91
2023-02-26T03:38:07.042Z,98767.13
2023-02-26T03:40:40.192Z,98760.25
2023-02-26T03:43:12.148Z,98766.66
2023-02-26T03:45:42.730Z,98759.50
2023-02-26T03:48:13.732Z,98755.47
2023-02-26T03:50:49.945Z,98762.66
2023-02-26T03:53:22.091Z,98763.25
2023-02-26T03:55:55.023Z,98769.66
2023-02-26T03:58:21.495Z,98779.22
2023-02-26T04:00:55.190Z,98789.06
2023-02-26T04:03:32.007Z,98797.59
2023-02-26T04:06:00.874Z,98808.56
2023-02-26T04:08:28.938Z,98813.56
2023-02-26T04:10:59.711Z,98808.66
2023-02-26T04:13:28.444Z,98818.41
2023-02-26T04:15:54.994Z,98822.38
2023-02-26T04:18:21.632Z,98819.16
2023-02-26T04:20:48.120Z,98820.09
2023-02-26T04:23:14.477Z,98822.81
2023-02-26T04:25:42.067Z,98822.63
2023-02-26T04:28:08.774Z,98821.09
2023-02-26T04:30:35.192Z,98828.38
2023-02-26T04:33:02.056Z,98820.66
2023-02-26T04:35:28.985Z,98827.25
2023-02-26T04:37:55.544Z,98821.41
2023-02-26T04:40:22.519Z,98829.16
2023-02-26T04:42:49.030Z,98828.28
2023-02-26T04:45:15.552Z,98831.25
2023-02-26T04:47:42.008Z,98833.13
2023-02-26T04:50:09.244Z,98836.47
2023-02-26T04:52:36.068Z,98844.31
2023-02-26T04:55:03.770Z,98853.38
2023-02-26T04:57:30.498Z,98839.81
2023-02-26T04:59:57.014Z,98849.00
2023-02-26T05:02:23.628Z,98852.78
2023-02-26T05:04:50.167Z,98854.25
2023-02-26T05:07:16.954Z,98853.41
2023-02-26T05:09:43.639Z,98862.00
2023-02-26T05:12:11.214Z,98856.34
2023-02-26T05:14:37.664Z,98860.94
2023-02-26T05:17:04.053Z,98864.91
2023-02-26T05:19:30.790Z,98867.94
2023-02-26T05:21:57.204Z,98880.16
2023-02-26T05:24:23.773Z,98877.44
2023-02-26T05:26:50.642Z,98877.56
2023-02-26T05:29:17.035Z,98879.00
2023-02-26T05:31:43.692Z,98881.00
2023-02-26T05:34:10.165Z,98887.88
2023-02-26T05:36:36.498Z,98889.22
2023-02-26T05:39:03.542Z,98892.47
2023-02-26T05:41:30.003Z,98897.19
2023-02-26T05:43:56.633Z,98900.72
2023-02-26T05:46:23.525Z,98900.41
2023-02-26T05:48:50.245Z,98904.19
2023-02-26T05:51:16.691Z,98904.81
2023-02-26T05:53:43.106Z,98900.00
2023-02-26T05:56:09.560Z,98914.63
2023-02-26T05:58:37.886Z,98918.34
2023-02-26T06:01:04.385Z,98919.50
2023-02-26T06:03:30.853Z,98923.06
2023-02-26T06:05:57.333Z,98918.75
2023-02-26T06:08:25.200Z,98925.66
2023-02-26T06:10:51.867Z,98933.09
2023-02-26T06:13:18.627Z,98927.34
2023-02-26T06:15:44.928Z,98937.16
2023-02-26T06:18:11.583Z,98938.94
2023-02-26T06:20:38.045Z,98942.81
2023-02-26T06:23:04.608Z,98943.44
2023-02-26T06:25:30.992Z,98952.53
2023-02-26T06:27:57.404Z,98946.16
2023-02-26T06:30:24.070Z,98959.63
2023-02-26T06:32:50.631Z,98957.63
2023-02-26T06:35:17.097Z,98962.84
2023-02-26T06:37:43.600Z,98963.47
2023-02-26T06:40:10.616Z,98967.44
2023-02-26T06:42:36.990Z,98957.63
2023-02-26T06:45:04.392Z,98965.75
2023-02-26T06:47:32.445Z,98966.38
2023-02-26T06:49:59.169Z,98974.00
2023-02-26T06:52:25.701Z,98958.50
2023-02-26T06:54:52.822Z,98956.09
2023-02-26T06:57:19.170Z,98960.13
2023-02-26T06:59:46.062Z,98959.13
2023-02-26T07:02:18.310Z,98957.28
2023-02-26T07:04:45.337Z,98944.63
2023-02-26T07:07:12.319Z,98917.88
2023-02-26T07:09:39.304Z,98881.53
2023-02-26T07:12:05.947Z,98878.47
2023-02-26T07:14:32.372Z,98872.69
2023-02-26T07:16:59.611Z,98847.06
2023-02-26T07:19:26.010Z,98846.97
2023-02-26T07:21:54.035Z,98841.63
2023-02-26T07:24:21.654Z,98837.34
2023-02-26T07:26:48.046Z,98844.94
2023-02-26T07:29:16.026Z,98807.09
2023-02-26T07:31:43.103Z,98793.28
2023-02-26T07:34:09.697Z,98782.09
2023-02-26T07:36:36.215Z,98783.28
2023-02-26T07:39:03.402Z,98798.16
2023-02-26T07:41:30.072Z,98829.50
2023-02-26T07:43:56.787Z,98831.28
2023-02-26T07:46:23.624Z,98856.88
2023-02-26T07:48:50.233Z,98845.44
2023-02-26T07:51:16.756Z,98850.78
2023-02-26T07:53:43.201Z,98849.59
2023-02-26T07:56:09.595Z,98828.28
2023-02-26T07:58:36.289Z,98830.91
2023-02-26T08:01:03.775Z,98851.59
2023-02-26T08:03:30.177Z,98828.72
2023-02-26T08:05:56.524Z,98794.50
2023-02-26T08:08:23.274Z,98821.03
2023-02-26T08:10:49.969Z,98836.16
2023-02-26T08:13:16.688Z,98838.50
2023-02-26T08:15:43.282Z,98822.06
2023-02-26T08:18:10.782Z,98828.41
2023-02-26T08:20:38.295Z,98807.97
2023-02-26T08:23:04.909Z,98765.47
2023-02-26T08:25:31.480Z,98764.84
2023-02-26T08:27:58.023Z,98762.63
2023-02-26T08:30:25.029Z,98765.28
2023-02-26T08:32:51.675Z,98770.34
2023-02-26T08:35:19.791Z,98775.47
2023-02-26T08:37:46.479Z,98784.75
2023-02-26T08:40:15.251Z,98787.31
2023-02-26T08:42:41.950Z,98796.53
2023-02-26T08:45:09.120Z,98769.75
2023-02-26T08:47:39.582Z,98746.91
2023-02-26T08:50:10.720Z,98767.41
2023-02-26T08:52:37.341Z,98783.22
2023-02-26T08:55:03.929Z,98813.25
2023-02-26T08:57:30.341Z,98826.72
2023-02-26T08:59:56.838Z,98798.31
2023-02-26T09:02:23.509Z,98792.25
2023-02-26T09:04:51.038Z,98799.13
2023-02-26T09:07:17.563Z,98780.09
2023-02-26T09:09:44.343Z,98789.75
2023-02-26T09:12:10.729Z,98812.81
2023-02-26T09:14:37.496Z,98849.34
2023-02-26T09:17:04.684Z,98844.63
2023-02-26T09:19:31.101Z,98850.81
2023-02-26T09:21:57.685Z,98859.53
2023-02-26T09:24:24.126Z,98847.47
2023-02-26T09:26:50.595Z,98858.97
2023-02-26T09:29:17.394Z,98868.88
2023-02-26T09:31:44.550Z,98851.44
2023-02-26T09:34:11.675Z,98837.38
2023-02-26T09:36:38.533Z,98832.91
2023-02-26T09:39:05.089Z,98801.97
2023-02-26T09:41:39.811Z,98799.13
2023-02-26T09:44:12.117Z,98809.59
2023-02-26T09:46:46.193Z,98790.53
2023-02-26T09:49:21.604Z,98806.84
2023-02-26T09:51:54.050Z,98805.00
2023-02-26T09:54:27.018Z,98810.63
2023-02-26T09:56:56.702Z,98784.91
2023-02-26T09:59:23.344Z,98760.34
2023-02-26T10:02:14.518Z,98776.75
2023-02-26T10:04:43.890Z,98763.03
2023-02-26T10:07:38.359Z,98770.47
2023-02-26T10:10:27.817Z,98773.53
2023-02-26T10:12:54.557Z,98763.09
2023-02-26T10:15:35.782Z,98767.66
2023-02-26T10:18:10.977Z,98768.44
2023-02-26T10:20:58.597Z,98776.13
2023-02-26T10:23:37.395Z,98798.66
2023-02-26T10:26:14.351Z,98801.16
2023-02-26T10:29:07.210Z,98790.03
2023-02-26T10:31:52.236Z,98793.50
2023-02-26T10:34:42.616Z,98785.28
2023-02-26T10:37:45.414Z,98783.94
2023-02-26T10:40:17.415Z,98784.38
2023-02-26T10:42:47.569Z,98803.00
2023-02-26T10:45:33.979Z,98820.91
2023-02-26T10:48:19.967Z,98808.59
2023-02-26T10:50:51.974Z,98779.63
2023-02-26T10:53:20.055Z,98773.34
2023-02-26T10:55:51.665Z,98782.19
2023-02-26T10:58:22.563Z,98774.19
2023-02-26T11:00:49.828Z,98768.38
2023-02-26T11:03:20.150Z,98755.38
2023-02-26T11:05:50.123Z,98739.88
2023-02-26T11:08:25.990Z,98742.66
2023-02-26T11:11:38.783Z,98744.31
2023-02-26T11:14:10.105Z,98742.25
2023-02-26T11:16:43.086Z,98747.34
2023-02-26T11:19:10.715Z,98755.94
2023-02-26T11:21:54.895Z,98753.66
2023-02-26T11:24:35.734Z,98757.31
2023-02-26T11:27:06.462Z,98752.84
2023-02-26T11:29:38.364Z,98771.44
2023-02-26T11:32:07.629Z,98753.75
2023-02-26T11:34:36.285Z,98766.19
2023-02-26T11:37:04.875Z,98749.44
2023-02-26T11:39:35.998Z,98725.28
2023-02-26T11:42:04.231Z,98725.03
2023-02-26T11:44:43.368Z,98725.03
2023-02-26T11:47:15.836Z,98724.34
2023-02-26T11:49:51.224Z,98726.72
2023-02-26T11:52:29.729Z,98737.81
2023-02-26T11:55:20.753Z,98734.88
2023-02-26T11:57:51.081Z,98727.69
2023-02-26T12:00:32.868Z,98735.03
2023-02-26T12:03:04.073Z,98750.69
2023-02-26T12:05:31.475Z,98741.06
2023-02-26T12:07:58.574Z,98736.25
2023-02-26T12:10:37.392Z,98724.44
2023-02-26T12:13:30.341Z,98725.03
2023-02-26T12:16:21.100Z,98727.22
2023-02-26T12:19:17.850Z,98723.22
2023-02-26T12:22:22.590Z,98721.16
2023-02-26T12:25:19.071Z,98719.31
2023-02-26T12:27:56.442Z,98713.28
2023-02-26T12:30:41.798Z,98718.78
2023-02-26T12:33:30.533Z,98712.59
2023-02-26T12:36:18.690Z,98732.53
2023-02-26T12:39:02.494Z,98715.19
2023-02-26T12:41:43.257Z,98712.06
2023-02-26T12:44:28.078Z,98714.00
2023-02-26T12:47:11.958Z,98721.16
2023-02-26T12:49:58.310Z,98720.91
2023-02-26T12:52:58.295Z,98710.84
2023-02-26T12:55:43.541Z,98720.16
2023-02-26T12:58:30.612Z,98724.00
2023-02-26T13:01:36.702Z,98725.00
2023-02-26T13:04:16.380Z,98718.75
2023-02-26T13:06:58.189Z,98715.47
2023-02-26T13:09:59.431Z,98735.97
2023-02-26T13:12:55.300Z,98734.59
2023-02-26T13:15:36.531Z,98728.66
2023-02-26T13:18:36.866Z,98728.94
2023-02-26T13:21:11.590Z,98729.06
2023-02-26T13:23:57.646Z,98745.31
2023-02-26T13:26:29.480Z,98725.28
2023-02-26T13:29:11.341Z,98717.47
2023-02-26T13:32:04.509Z,98729.81
2023-02-26T13:34:48.612Z,98725.28
2023-02-26T13:37:40.203Z,98728.22
2023-02-26T13:40:28.788Z,98732.06
2023-02-26T13:43:13.912Z,98725.56
2023-02-26T13:45:54.803Z,98736.19
2023-02-26T13:48:23.934Z,98728.25
2023-02-26T13:51:05.211Z,98723.47
2023-02-26T13:53:40.630Z,98723.03
2023-02-26T13:56:14.382Z,98719.81
2023-02-26T13:58:43.036Z,98724.66
2023-02-26T14:01:20.483Z,98731.25
2023-02-26T14:03:53.194Z,98734.66
2023-02-26T14:06:41.148Z,98722.44
2023-02-26T14:09:22.921Z,98721.91
2023-02-26T14:11:55.351Z,98725.88
2023-02-26T14:14:21.749Z,98728.53
2023-02-26T14:17:06.472Z,98730.84
2023-02-26T14:19:37.602Z,98733.09
2023-02-26T14:22:22.977Z,98742.81
2023-02-26T14:24:58.722Z,98724.06
2023-02-26T14:27:36.876Z,98735.78
2023-02-26T14:30:08.918Z,98731.19
2023-02-26T14:32:54.367Z,98733.72
2023-02-26T14:35:32.767Z,98739.16
2023-02-26T14:38:15.740Z,98735.22
2023-02-26T14:40:48.803Z,98733.66
2023-02-26T14:43:37.140Z,98746.84
2023-02-26T14:46:05.747Z,98729.38
2023-02-26T14:48:33.093Z,98751.31
2023-02-26T14:51:15.459Z,98745.00
2023-02-26T14:53:50.932Z,98748.16
2023-02-26T14:56:30.508Z,98749.00
2023-02-26T14:59:02.851Z,98748.63
2023-02-26T15:01:51.787Z,98751.69
2023-02-26T15:04:53.730Z,98747.00
2023-02-26T15:07:42.953Z,98752.09
2023-02-26T15:10:29.446Z,98769.50
2023-02-26T15:13:07.639Z,98761.63
2023-02-26T15:15:57.815Z,98762.03
2023-02-26T15:18:55.067Z,98784.31
2023-02-26T15:21:37.687Z,98774.25
2023-02-26T15:24:05.041Z,98788.94
2023-02-26T15:26:35.333Z,98786.38
2023-02-26T15:29:11.634Z,98780.56
2023-02-26T15:32:02.568Z,98784.56
2023-02-26T15:34:29.889Z,98780.38
2023-02-26T15:36:57.718Z,98780.78
2023-02-26T15:39:25.138Z,98775.81
2023-02-26T15:41:54.326Z,98779.44
2023-02-26T15:44:28.634Z,98785.56
2023-02-26T15:46:59.775Z,98803.56
2023-02-26T15:49:34.762Z,98803.84
2023-02-26T15:52:03.009Z,98807.75
2023-02-26T15:54:45.241Z,98818.56
2023-02-26T15:57:13.733Z,98818.28
2023-02-26T15:59:44.315Z,98811.22
2023-02-26T16:02:12.509Z,98814.69
2023-02-26T16:04:39.153Z,98818.97
2023-02-26T16:07:09.435Z,98814.25
2023-02-26T16:09:44.626Z,98821.03
2023-02-26T16:12:22.679Z,98823.66
2023-02-26T16:14:53.754Z,98816.88
2023-02-26T16:17:33.209Z,98836.72
2023-02-26T16:20:13.010Z,98844.47
2023-02-26T16:22:47.655Z,98852.34
2023-02-26T16:25:25.589Z,98848.72
2023-02-26T16:28:05.883Z,98861.06
2023-02-26T16:30:38.478Z,98856.75
2023-02-26T16:36:14.717Z,98863.69
2023-02-26T16:39:00.060Z,98876.41
2023-02-26T16:41:30.384Z,98881.94
2023-02-26T16:43:59.777Z,98877.66
2023-02-26T16:46:34.875Z,98877.09
2023-02-26T16:49:25.509Z,98884.00
2023-02-26T16:51:53.904Z,98890.25
2023-02-26T16:54:25.670Z,98898.66
2023-02-26T16:57:09.403Z,98897.25
2023-02-26T16:59:38.582Z,98898.50
2023-02-26T17:02:18.539Z,98905.94
2023-02-26T17:04:50.721Z,98901.72
2023-02-26T17:07:34.297Z,98906.88
2023-02-26T17:10:11.045Z,98908.13
2023-02-26T17:12:45.479Z,98919.53
2023-02-26T17:15:30.571Z,98917.88
2023-02-26T17:17:58.083Z,98922.56
2023-02-26T17:20:26.515Z,98923.09
2023-02-26T17:22:53.491Z,98919.63
2023-02-26T17:25:20.681Z,98928.19
2023-02-26T17:27:48.325Z,98933.47
2023-02-26T17:30:18.474Z,98927.38
2023-02-26T17:32:46.133Z,98928.72
2023-02-26T17:35:16.067Z,98936.84
2023-02-26T17:37:43.297Z,98943.59
2023-02-26T17:40:25.755Z,98939.06
2023-02-26T17:42:52.763Z,98950.50
2023-02-26T17:45:20.337Z,98961.47
2023-02-26T17:47:48.205Z,98955.91
2023-02-26T17:50:27.357Z,98956.28
2023-02-26T17:52:54.064Z,98955.13
2023-02-26T17:55:21.064Z,98945.97
2023-02-26T17:57:47.812Z,98965.63
2023-02-26T18:00:16.239Z,98968.53
2023-02-26T18:02:46.002Z,98977.63
2023-02-26T18:05:12.611Z,98977.63
2023-02-26T18:07:39.911Z,98977.31
2023-02-26T18:10:07.095Z,98978.38
2023-02-26T18:12:33.872Z,98982.66
2023-02-26T18:15:00.523Z,98984.63
2023-02-26T18:17:29.398Z,98981.75
2023-02-26T18:19:56.491Z,98976.50
2023-02-26T18:22:24.105Z,98980.69
2023-02-26T18:24:51.077Z,98983.88
2023-02-26T18:27:21.557Z,98990.53
2023-02-26T18:29:48.729Z,98980.88
2023-02-26T18:32:24.215Z,98972.16
2023-02-26T18:34:53.849Z,98968.69
2023-02-26T18:37:23.811Z,98973.25
2023-02-26T18:39:50.385Z,98975.34
2023-02-26T18:42:24.310Z,98983.06
2023-02-26T18:44:52.455Z,98980.94
2023-02-26T18:47:22.410Z,98977.97
2023-02-26T18:49:50.061Z,98986.34
2023-02-26T18:52:17.124Z,98993.50
2023-02-26T18:54:43.995Z,98997.59
2023-02-26T18:57:10.926Z,98995.47
2023-02-26T18:59:37.416Z,98997.28
2023-02-26T19:02:06.072Z,99013.00
2023-02-26T19:04:34.036Z,99004.41
2023-02-26T19:07:00.518Z,98999.41
2023-02-26T19:09:26.930Z,99004.06
2023-02-26T19:11:53.590Z,99007.28
2023-02-26T19:14:21.094Z,99011.22
2023-02-26T19:16:47.804Z,99012.53
2023-02-26T19:19:14.342Z,99013.97
2023-02-26T19:21:41.246Z,99015.28
2023-02-26T19:24:12.829Z,99017.19
2023-02-26T19:26:39.521Z,99022.69
2023-02-26T19:29:08.570Z,99021.38
2023-02-26T19:31:38.415Z,99026.63
2023-02-26T19:34:05.248Z,99029.34
2023-02-26T19:36:31.646Z,99037.22
2023-02-26T19:38:58.098Z,99029.97
2023-02-26T19:41:24.666Z,99027.69
2023-02-26T19:43:51.741Z,99037.22
2023-02-26T19:46:18.729Z,99031.88
2023-02-26T19:48:45.395Z,99040.84
2023-02-26T19:51:11.851Z,99060.38
2023-02-26T19:53:38.552Z,99048.72
2023-02-26T20:00:33.610Z,99062.91
2023-02-26T20:10:14.086Z,99092.59
2023-02-26T20:13:28.910Z,99090.91
2023-02-26T20:15:58.402Z,99098.28
2023-02-26T20:18:26.319Z,99099.25
2023-02-26T20:20:53.369Z,99107.09
2023-02-26T20:23:22.354Z,99102.19
2023-02-26T20:25:50.507Z,99093.28
2023-02-26T20:28:21.375Z,99102.28
2023-02-26T20:30:47.753Z,99109.09
2023-02-26T20:33:14.241Z,99121.13
2023-02-26T20:35:45.564Z,99115.19
2023-02-26T20:38:13.775Z,99117.56
2023-02-26T20:40:40.541Z,99115.63
2023-02-26T20:43:07.008Z,99116.31
2023-02-26T20:45:33.564Z,99126.81
2023-02-26T20:48:00.027Z,99118.03
2023-02-26T20:50:26.592Z,99124.91
2023-02-26T20:52:53.059Z,99115.97
2023-02-26T20:55:20.584Z,99130.03
2023-02-26T20:57:48.165Z,99129.06
2023-02-26T21:00:15.107Z,99133.16
2023-02-26T21:02:42.897Z,99128.38
2023-02-26T21:05:10.275Z,99128.88
2023-02-26T21:07:38.426Z,99141.34
2023-02-26T21:10:13.776Z,99137.44
2023-02-26T21:12:40.292Z,99139.44
2023-02-26T21:15:07.877Z,99141.47
2023-02-26T21:17:34.619Z,99132.50
2023-02-26T21:20:01.363Z,99141.34
2023-02-26T21:22:28.248Z,99143.34
2023-02-26T21:24:54.843Z,99145.38
2023-02-26T21:27:21.211Z,99149.34
2023-02-26T21:29:47.639Z,99157.28
2023-02-26T21:32:14.372Z,99162.06
2023-02-26T21:34:41.493Z,99165.44
2023-02-26T21:37:13.068Z,99165.44
2023-02-26T21:39:39.779Z,99166.88
2023-02-26T21:42:10.486Z,99166.13
2023-02-26T21:44:39.447Z,99162.44
2023-02-26T21:47:05.852Z,99165.34
2023-02-26T21:49:32.708Z,99162.81
2023-02-26T21:52:01.294Z,99159.00
2023-02-26T21:54:28.451Z,99152.78
2023-02-26T21:56:55.424Z,99148.94
2023-02-26T21:59:22.692Z,99155.25
2023-02-26T22:01:51.235Z,99150.56
2023-02-26T22:04:19.124Z,99149.13
2023-02-26T22:06:47.277Z,99146.66
2023-02-26T22:09:14.110Z,99144.63
2023-02-26T22:11:40.655Z,99152.19
2023-02-26T22:14:07.114Z,99149.28
2023-02-26T22:16:33.548Z,99156.22
2023-02-26T22:19:00.061Z,99152.13
2023-02-26T22:21:26.792Z,99148.66
2023-02-26T22:23:53.433Z,99145.06
2023-02-26T22:26:20.019Z,99148.50
2023-02-26T22:28:46.362Z,99150.09
2023-02-26T22:31:13.312Z,99145.34
2023-02-26T22:33:39.886Z,99151.25
2023-02-26T22:36:06.875Z,99156.59
2023-02-26T22:38:33.254Z,99156.72
2023-02-26T22:40:59.643Z,99164.34
2023-02-26T22:43:26.063Z,99171.91
2023-02-26T22:45:52.832Z,99169.69
2023-02-26T22:48:19.551Z,99172.00
2023-02-26T22:50:46.007Z,99169.28
2023-02-26T22:53:12.698Z,99172.00
2023-02-26T22:55:39.516Z,99174.13
2023-02-26T22:58:05.941Z,99174.63
2023-02-26T23:00:32.413Z,99173.38
2023-02-26T23:02:58.849Z,99169.19
2023-02-26T23:05:26.345Z,99166.72
2023-02-26T23:07:52.774Z,99171.19
2023-02-26T23:10:19.892Z,99179.41
2023-02-26T23:12:46.458Z,99178.13
2023-02-26T23:15:13.688Z,99181.88
2023-02-26T23:17:41.293Z,99184.72
2023-02-26T23:20:10.133Z,99183.81
2023-02-26T23:22:37.668Z,99190.97
2023-02-26T23:25:04.296Z,99193.97
2023-02-26T23:27:30.650Z,99195.22
2023-02-26T23:29:57.341Z,99192.38
2023-02-26T23:32:23.815Z,99199.63
2023-02-26T23:34:50.572Z,99195.44
2023-02-26T23:37:16.886Z,99191.16
2023-02-26T23:39:43.597Z,99206.44
2023-02-26T23:42:10.133Z,99198.69
2023-02-26T23:44:36.503Z,99209.56
2023-02-26T23:47:02.923Z,99206.03
2023-02-26T23:49:29.281Z,99201.50
2023-02-26T23:51:55.818Z,99213.66
2023-02-26T23:54:22.529Z,99211.47
2023-02-26T23:56:48.891Z,99205.91
2023-02-26T23:59:15.381Z,99204.31
